createdAt,value
2018-03-29T00:01:17.431Z,2.60
2018-03-29T00:03:44.148Z,2.80
2018-03-29T00:06:10.861Z,2.97
2018-03-29T00:08:37.556Z,3.00
2018-03-29T00:11:04.274Z,3.30
2018-03-29T00:13:31.851Z,3.40
2018-03-29T00:15:58.558Z,3.70
2018-03-29T00:18:25.356Z,2.80
2018-03-29T00:20:52.357Z,3.67
2018-03-29T00:23:19.072Z,2.97
2018-03-29T00:25:45.769Z,3.63
2018-03-29T00:28:12.485Z,3.50
2018-03-29T00:30:40.056Z,3.00
2018-03-29T00:33:06.768Z,2.60
2018-03-29T00:35:33.449Z,2.60
2018-03-29T00:38:00.143Z,2.97
2018-03-29T00:40:26.841Z,2.93
2018-03-29T00:42:53.547Z,3.47
2018-03-29T00:45:20.244Z,3.03
2018-03-29T00:47:46.925Z,3.03
2018-03-29T00:50:13.647Z,3.23
2018-03-29T00:52:40.583Z,2.77
2018-03-29T00:55:07.385Z,2.97
2018-03-29T00:57:34.134Z,3.43
2018-03-29T01:00:00.833Z,3.07
2018-03-29T01:02:27.549Z,3.03
2018-03-29T01:04:54.264Z,2.90
2018-03-29T01:07:21.273Z,3.67
2018-03-29T01:09:47.962Z,2.87
2018-03-29T01:12:14.675Z,3.60
2018-03-29T01:14:41.419Z,3.60
2018-03-29T01:17:08.107Z,3.50
2018-03-29T01:19:34.790Z,3.17
2018-03-29T01:22:01.499Z,3.70
2018-03-29T01:24:28.211Z,3.50
2018-03-29T01:26:54.948Z,3.90
2018-03-29T01:29:21.640Z,3.30
2018-03-29T01:31:48.470Z,3.97
2018-03-29T01:34:16.028Z,3.60
2018-03-29T01:36:42.860Z,3.70
2018-03-29T01:39:09.594Z,3.67
2018-03-29T01:41:36.620Z,5.00
2018-03-29T01:44:03.294Z,4.30
2018-03-29T01:46:29.997Z,4.27
2018-03-29T01:48:56.667Z,4.57
2018-03-29T01:51:23.346Z,4.33
2018-03-29T01:53:50.052Z,4.67
2018-03-29T01:56:16.746Z,5.40
2018-03-29T01:58:43.495Z,5.33
2018-03-29T02:01:10.926Z,5.00
2018-03-29T02:03:38.315Z,5.10
2018-03-29T02:06:05.014Z,5.43
2018-03-29T02:08:31.702Z,5.07
2018-03-29T02:10:58.440Z,4.70
2018-03-29T02:13:25.128Z,4.60
2018-03-29T02:15:52.165Z,5.37
2018-03-29T02:18:18.871Z,5.00
2018-03-29T02:20:45.570Z,4.60
2018-03-29T02:23:12.298Z,4.60
2018-03-29T02:25:39.568Z,4.90
2018-03-29T02:28:06.751Z,5.33
2018-03-29T02:30:33.469Z,5.00
2018-03-29T02:33:00.215Z,5.60
2018-03-29T02:35:27.843Z,5.33
2018-03-29T02:37:54.540Z,6.30
2018-03-29T02:40:21.243Z,6.00
2018-03-29T02:42:47.984Z,5.70
2018-03-29T02:45:14.708Z,5.73
2018-03-29T02:47:41.852Z,5.43
2018-03-29T02:50:08.610Z,5.57
2018-03-29T02:52:35.353Z,5.60
2018-03-29T02:55:02.110Z,5.80
2018-03-29T02:57:28.803Z,5.80
2018-03-29T02:59:55.499Z,5.60
2018-03-29T03:02:22.213Z,5.87
2018-03-29T03:04:49.064Z,6.67
2018-03-29T03:07:15.751Z,6.10
2018-03-29T03:09:42.467Z,5.70
2018-03-29T03:12:09.161Z,5.33
2018-03-29T03:14:35.873Z,5.07
2018-03-29T03:17:02.593Z,5.30
2018-03-29T03:19:29.287Z,5.43
2018-03-29T03:21:55.996Z,4.83
2018-03-29T03:24:22.713Z,4.70
2018-03-29T03:26:49.452Z,4.50
2018-03-29T03:29:16.121Z,4.20
2018-03-29T03:31:42.830Z,4.17
2018-03-29T03:34:09.518Z,4.17
2018-03-29T03:36:36.451Z,4.20
2018-03-29T03:39:03.990Z,4.03
2018-03-29T03:41:30.729Z,3.80
2018-03-29T03:43:57.460Z,3.53
2018-03-29T03:46:24.528Z,3.80
2018-03-29T03:48:51.237Z,3.50
2018-03-29T03:51:17.902Z,3.10
2018-03-29T03:53:44.614Z,3.60
2018-03-29T03:56:11.385Z,3.43
2018-03-29T03:58:38.048Z,3.10
2018-03-29T04:01:04.762Z,3.10
2018-03-29T04:03:31.442Z,3.63
2018-03-29T04:05:58.141Z,3.27
2018-03-29T04:08:24.879Z,3.20
2018-03-29T04:10:52.439Z,3.20
2018-03-29T04:13:19.159Z,3.03
2018-03-29T04:15:45.886Z,3.43
2018-03-29T04:18:12.655Z,3.50
2018-03-29T04:20:39.368Z,3.50
2018-03-29T04:23:06.119Z,3.20
2018-03-29T04:25:32.808Z,3.10
2018-03-29T04:27:59.552Z,3.23
2018-03-29T04:30:26.341Z,3.20
2018-03-29T04:32:53.095Z,3.53
2018-03-29T04:35:19.775Z,3.70
2018-03-29T04:37:46.513Z,3.50
2018-03-29T04:40:13.214Z,3.80
2018-03-29T04:42:39.929Z,3.97
2018-03-29T04:45:06.705Z,3.57
2018-03-29T04:47:33.454Z,3.80
2018-03-29T04:50:00.482Z,3.77
2018-03-29T04:52:27.775Z,3.73
2018-03-29T04:54:54.618Z,4.20
2018-03-29T04:57:21.296Z,4.10
2018-03-29T04:59:47.987Z,5.30
2018-03-29T05:02:14.700Z,4.00
2018-03-29T05:04:41.426Z,4.20
2018-03-29T05:07:08.143Z,4.33
2018-03-29T05:09:35.572Z,4.73
2018-03-29T05:12:02.248Z,4.77
2018-03-29T05:14:29.226Z,4.37
2018-03-29T05:16:55.906Z,4.90
2018-03-29T05:19:22.641Z,4.80
2018-03-29T05:21:49.368Z,5.50
2018-03-29T05:24:16.854Z,4.93
2018-03-29T05:26:49.740Z,5.20
2018-03-29T05:29:16.532Z,4.70
2018-03-29T05:31:43.204Z,5.23
2018-03-29T05:34:09.963Z,4.43
2018-03-29T05:36:36.688Z,5.33
2018-03-29T05:39:03.366Z,4.87
2018-03-29T05:41:30.049Z,4.90
2018-03-29T05:43:56.742Z,5.70
2018-03-29T05:46:23.417Z,5.80
2018-03-29T05:48:50.081Z,5.50
2018-03-29T05:51:16.834Z,5.50
2018-03-29T05:53:43.535Z,5.07
2018-03-29T05:56:10.239Z,4.47
2018-03-29T05:58:36.955Z,5.80
2018-03-29T06:01:03.716Z,5.70
2018-03-29T06:03:30.470Z,5.23
2018-03-29T06:05:57.185Z,4.83
2018-03-29T06:08:23.889Z,4.63
2018-03-29T06:10:52.263Z,5.20
2018-03-29T06:13:19.169Z,5.00
2018-03-29T06:15:45.903Z,5.10
2018-03-29T06:18:13.450Z,5.40
2018-03-29T06:20:40.125Z,5.70
2018-03-29T06:23:06.828Z,4.63
2018-03-29T06:25:33.512Z,5.10
2018-03-29T06:28:01.068Z,5.20
2018-03-29T06:30:27.748Z,5.30
2018-03-29T06:32:54.480Z,5.13
2018-03-29T06:35:21.262Z,4.77
2018-03-29T06:37:48.049Z,4.53
2018-03-29T06:40:15.018Z,5.13
2018-03-29T06:42:41.747Z,4.57
2018-03-29T06:45:08.520Z,5.00
2018-03-29T06:47:35.286Z,4.87
2018-03-29T06:50:01.990Z,4.30
2018-03-29T06:52:28.685Z,4.73
2018-03-29T06:54:55.413Z,4.57
2018-03-29T06:57:22.179Z,4.27
2018-03-29T06:59:48.886Z,3.80
2018-03-29T07:02:15.596Z,4.37
2018-03-29T07:04:42.301Z,3.97
2018-03-29T07:07:09.041Z,4.23
2018-03-29T07:09:35.761Z,4.57
2018-03-29T07:12:02.456Z,3.97
2018-03-29T07:14:29.415Z,4.10
2018-03-29T07:16:56.086Z,3.70
2018-03-29T07:19:22.793Z,3.60
2018-03-29T07:21:49.533Z,3.53
2018-03-29T07:24:16.798Z,3.93
2018-03-29T07:26:43.475Z,3.80
2018-03-29T07:29:10.212Z,3.57
2018-03-29T07:31:36.902Z,3.50
2018-03-29T07:34:03.622Z,4.13
2018-03-29T07:36:30.383Z,3.60
2018-03-29T07:38:57.054Z,4.07
2018-03-29T07:41:23.778Z,4.20
2018-03-29T07:43:50.481Z,4.27
2018-03-29T07:46:17.204Z,4.23
2018-03-29T07:48:43.891Z,3.67
2018-03-29T07:51:12.507Z,4.57
2018-03-29T07:53:39.181Z,4.90
2018-03-29T07:56:05.882Z,4.30
2018-03-29T07:58:32.593Z,4.60
2018-03-29T08:00:59.291Z,4.10
2018-03-29T08:03:26.005Z,4.50
2018-03-29T08:05:52.671Z,4.40
2018-03-29T08:08:19.870Z,4.83
2018-03-29T08:10:46.634Z,4.70
2018-03-29T08:13:14.402Z,3.63
2018-03-29T08:15:41.113Z,5.13
2018-03-29T08:18:08.877Z,4.87
2018-03-29T08:20:35.583Z,4.83
2018-03-29T08:23:02.282Z,4.77
2018-03-29T08:25:29.362Z,4.83
2018-03-29T08:27:56.054Z,4.63
2018-03-29T08:30:22.736Z,4.73
2018-03-29T08:32:49.421Z,4.20
2018-03-29T08:35:16.174Z,4.50
2018-03-29T08:37:42.869Z,4.33
2018-03-29T08:40:09.730Z,5.40
2018-03-29T08:42:36.417Z,4.20
2018-03-29T08:45:03.106Z,4.23
2018-03-29T08:47:29.798Z,3.70
2018-03-29T08:49:56.488Z,3.20
2018-03-29T08:52:23.422Z,3.50
2018-03-29T08:54:50.104Z,3.47
2018-03-29T08:57:16.869Z,3.20
2018-03-29T08:59:43.576Z,3.53
2018-03-29T09:02:10.490Z,3.33
2018-03-29T09:04:37.189Z,2.80
2018-03-29T09:07:03.867Z,3.10
2018-03-29T09:09:30.564Z,3.20
2018-03-29T09:11:57.401Z,2.80
2018-03-29T09:14:24.079Z,3.00
2018-03-29T09:16:50.767Z,2.80
2018-03-29T09:19:17.475Z,3.00
2018-03-29T09:21:44.192Z,2.70
2018-03-29T09:24:11.096Z,2.83
2018-03-29T09:26:37.819Z,2.90
2018-03-29T09:29:04.556Z,3.60
2018-03-29T09:31:31.284Z,3.43
2018-03-29T09:33:58.005Z,3.30
2018-03-29T09:36:24.711Z,3.30
2018-03-29T09:38:52.306Z,3.10
2018-03-29T09:41:19.049Z,2.77
2018-03-29T09:43:49.302Z,2.93
2018-03-29T09:46:15.998Z,2.80
2018-03-29T09:48:43.359Z,3.47
2018-03-29T09:51:10.943Z,2.80
2018-03-29T09:53:37.634Z,2.90
2018-03-29T09:56:05.254Z,2.60
2018-03-29T09:58:32.004Z,3.00
2018-03-29T10:01:04.322Z,2.83
2018-03-29T10:03:31.482Z,2.67
2018-03-29T10:06:04.326Z,3.20
2018-03-29T10:08:31.985Z,3.00
2018-03-29T10:10:58.698Z,2.93
2018-03-29T10:13:25.404Z,2.50
2018-03-29T10:15:52.185Z,3.67
2018-03-29T10:18:18.882Z,3.07
2018-03-29T10:20:45.587Z,3.60
2018-03-29T10:23:12.286Z,3.57
2018-03-29T10:25:38.994Z,4.10
2018-03-29T10:28:05.687Z,4.90
2018-03-29T10:30:32.378Z,3.30
2018-03-29T10:32:59.087Z,3.47
2018-03-29T10:35:25.779Z,2.47
2018-03-29T10:37:52.486Z,2.50
2018-03-29T10:40:19.192Z,3.00
2018-03-29T10:42:45.897Z,2.70
2018-03-29T10:45:12.595Z,3.10
2018-03-29T10:47:39.341Z,2.20
2018-03-29T10:50:06.079Z,2.10
2018-03-29T10:52:32.844Z,2.63
2018-03-29T10:54:59.562Z,2.53
2018-03-29T10:57:26.470Z,2.30
2018-03-29T10:59:53.193Z,1.80
2018-03-29T11:02:19.915Z,2.30
2018-03-29T11:04:46.622Z,1.80
2018-03-29T11:07:13.318Z,2.40
2018-03-29T11:09:40.062Z,2.73
2018-03-29T11:12:06.812Z,2.30
2018-03-29T11:14:33.483Z,2.27
2018-03-29T11:17:00.278Z,2.40
2018-03-29T11:19:26.960Z,2.20
2018-03-29T11:21:53.643Z,2.07
2018-03-29T11:24:20.343Z,2.73
2018-03-29T11:26:47.776Z,2.27
2018-03-29T11:29:14.666Z,2.60
2018-03-29T11:31:41.395Z,3.20
2018-03-29T11:34:08.563Z,2.80
2018-03-29T11:36:35.313Z,2.90
2018-03-29T11:39:02.009Z,2.67
2018-03-29T11:41:28.727Z,2.90
2018-03-29T11:43:55.415Z,2.97
2018-03-29T11:46:22.121Z,3.23
2018-03-29T11:48:48.808Z,2.97
2018-03-29T11:51:15.499Z,2.47
2018-03-29T11:53:43.084Z,3.00
2018-03-29T11:56:09.773Z,3.20
2018-03-29T11:58:36.505Z,3.00
2018-03-29T12:01:03.224Z,2.73
2018-03-29T12:03:29.921Z,3.20
2018-03-29T12:05:56.626Z,3.07
2018-03-29T12:08:23.311Z,2.87
2018-03-29T12:10:50.041Z,2.63
2018-03-29T12:13:16.730Z,3.07
2018-03-29T12:15:43.431Z,2.17
2018-03-29T12:18:10.102Z,2.70
2018-03-29T12:20:36.789Z,2.50
2018-03-29T12:23:03.489Z,2.70
2018-03-29T12:25:30.190Z,2.60
2018-03-29T12:27:56.968Z,2.60
2018-03-29T12:30:23.689Z,2.80
2018-03-29T12:32:50.402Z,2.50
2018-03-29T12:35:17.133Z,3.03
2018-03-29T12:37:43.890Z,2.60
2018-03-29T12:40:10.616Z,2.43
2018-03-29T12:42:37.334Z,2.17
2018-03-29T12:45:04.216Z,2.70
2018-03-29T12:47:30.974Z,2.87
2018-03-29T12:49:57.714Z,2.53
2018-03-29T12:52:24.540Z,2.60
2018-03-29T12:54:57.318Z,2.10
2018-03-29T12:57:29.918Z,2.50
2018-03-29T12:59:56.632Z,2.60
2018-03-29T13:02:23.471Z,2.23
2018-03-29T13:04:50.210Z,2.40
2018-03-29T13:07:17.816Z,2.60
2018-03-29T13:09:44.578Z,2.30
2018-03-29T13:12:11.260Z,2.37
2018-03-29T13:14:37.943Z,2.37
2018-03-29T13:17:04.724Z,2.40
2018-03-29T13:19:31.435Z,2.57
2018-03-29T13:21:58.169Z,2.53
2018-03-29T13:24:24.855Z,2.37
2018-03-29T13:26:51.591Z,2.00
2018-03-29T13:29:18.310Z,2.57
2018-03-29T13:31:45.384Z,2.27
2018-03-29T13:34:12.160Z,2.70
2018-03-29T13:36:39.005Z,2.53
2018-03-29T13:39:06.122Z,2.40
2018-03-29T13:41:32.851Z,2.63
2018-03-29T13:43:59.574Z,2.33
2018-03-29T13:46:26.311Z,2.70
2018-03-29T13:48:53.102Z,2.37
2018-03-29T13:51:19.877Z,2.20
2018-03-29T13:53:46.650Z,2.47
2018-03-29T13:56:13.394Z,2.43
2018-03-29T13:58:41.106Z,2.73
2018-03-29T14:01:07.888Z,2.70
2018-03-29T14:03:34.610Z,2.53
2018-03-29T14:06:01.348Z,2.47
2018-03-29T14:08:28.032Z,2.90
2018-03-29T14:10:54.772Z,2.30
2018-03-29T14:13:21.850Z,2.30
2018-03-29T14:15:48.564Z,2.93
2018-03-29T14:18:15.276Z,2.40
2018-03-29T14:20:41.992Z,2.73
2018-03-29T14:23:09.084Z,2.80
2018-03-29T14:25:35.921Z,2.50
2018-03-29T14:28:02.625Z,2.50
2018-03-29T14:30:29.334Z,2.90
2018-03-29T14:32:56.202Z,2.30
2018-03-29T14:38:07.876Z,2.13
2018-03-29T14:40:34.623Z,3.03
2018-03-29T14:43:01.340Z,2.30
2018-03-29T14:45:28.054Z,2.40
2018-03-29T14:47:54.771Z,2.17
2018-03-29T14:50:21.499Z,3.07
2018-03-29T14:52:48.226Z,3.13
2018-03-29T14:55:15.509Z,3.30
2018-03-29T14:57:42.265Z,2.60
2018-03-29T15:00:08.963Z,2.60
2018-03-29T15:02:35.668Z,2.53
2018-03-29T15:05:02.383Z,3.30
2018-03-29T15:07:29.041Z,3.20
2018-03-29T15:09:56.568Z,2.77
2018-03-29T15:12:23.305Z,3.40
2018-03-29T15:14:49.979Z,2.90
2018-03-29T15:17:16.693Z,3.37
2018-03-29T15:19:43.438Z,3.00
2018-03-29T15:22:10.151Z,2.97
2018-03-29T15:24:36.927Z,2.13
2018-03-29T15:27:03.646Z,2.10
2018-03-29T15:29:30.358Z,2.60
2018-03-29T15:31:57.422Z,2.53
2018-03-29T15:34:24.347Z,2.80
2018-03-29T15:36:51.036Z,2.40
2018-03-29T15:39:17.755Z,2.80
2018-03-29T15:41:44.517Z,2.03
2018-03-29T15:44:11.637Z,2.03
2018-03-29T15:46:38.823Z,2.60
2018-03-29T15:49:05.506Z,2.50
2018-03-29T15:51:32.229Z,2.37
2018-03-29T15:53:58.929Z,2.40
2018-03-29T15:56:25.619Z,2.60
2018-03-29T15:58:52.379Z,2.70
2018-03-29T16:01:19.116Z,2.93
2018-03-29T16:03:45.791Z,2.73
2018-03-29T16:06:12.493Z,2.30
2018-03-29T16:08:39.196Z,2.90
2018-03-29T16:11:05.916Z,2.27
2018-03-29T16:13:32.614Z,1.90
2018-03-29T16:15:59.356Z,2.40
2018-03-29T16:18:26.932Z,2.03
2018-03-29T16:20:53.602Z,2.23
2018-03-29T16:23:20.322Z,2.50
2018-03-29T16:25:47.036Z,2.30
2018-03-29T16:28:13.764Z,2.73
2018-03-29T16:30:40.535Z,2.63
2018-03-29T16:33:07.275Z,4.10
2018-03-29T16:35:34.065Z,2.40
2018-03-29T16:38:01.671Z,2.03
2018-03-29T16:40:28.365Z,2.33
2018-03-29T16:42:55.077Z,2.60
2018-03-29T16:45:21.794Z,2.90
2018-03-29T16:47:48.567Z,2.40
2018-03-29T16:50:15.386Z,2.20
2018-03-29T16:52:42.094Z,2.60
2018-03-29T16:55:08.793Z,2.00
2018-03-29T16:57:35.485Z,2.20
2018-03-29T17:00:02.176Z,2.00
2018-03-29T17:02:28.925Z,2.17
2018-03-29T17:04:55.638Z,1.80
2018-03-29T17:07:22.389Z,2.73
2018-03-29T17:09:49.095Z,2.27
2018-03-29T17:12:15.785Z,2.07
2018-03-29T17:14:42.481Z,2.30
2018-03-29T17:17:09.169Z,1.73
2018-03-29T17:19:35.883Z,2.07
2018-03-29T17:22:02.584Z,2.30
2018-03-29T17:24:29.329Z,2.37
2018-03-29T17:26:56.025Z,2.73
2018-03-29T17:29:22.738Z,1.97
2018-03-29T17:31:49.463Z,2.27
2018-03-29T17:34:16.144Z,1.67
2018-03-29T17:36:42.818Z,2.40
2018-03-29T17:39:09.519Z,2.10
2018-03-29T17:41:36.328Z,2.63
2018-03-29T17:44:03.049Z,2.00
2018-03-29T17:46:29.722Z,2.17
2018-03-29T17:48:56.415Z,2.10
2018-03-29T17:51:23.098Z,2.23
2018-03-29T17:53:49.805Z,2.20
2018-03-29T17:56:16.488Z,2.53
2018-03-29T17:58:43.189Z,3.20
2018-03-29T18:01:09.888Z,4.10
2018-03-29T18:03:37.253Z,3.67
2018-03-29T18:06:04.062Z,4.37
2018-03-29T18:08:30.739Z,3.33
2018-03-29T18:10:57.456Z,3.50
2018-03-29T18:13:24.191Z,3.67
2018-03-29T18:15:50.876Z,3.80
2018-03-29T18:18:17.667Z,3.50
2018-03-29T18:20:44.359Z,3.67
2018-03-29T18:23:11.114Z,3.57
2018-03-29T18:25:38.009Z,4.47
2018-03-29T18:28:04.761Z,4.27
2018-03-29T18:30:31.525Z,3.90
2018-03-29T18:32:58.286Z,3.20
2018-03-29T18:35:24.999Z,3.87
2018-03-29T18:37:51.726Z,4.37
2018-03-29T18:40:18.426Z,5.37
2018-03-29T18:42:45.224Z,3.50
2018-03-29T18:45:11.935Z,3.47
2018-03-29T18:47:38.607Z,4.50
2018-03-29T18:50:05.314Z,3.83
2018-03-29T18:52:32.030Z,4.00
2018-03-29T18:54:58.749Z,4.43
2018-03-29T18:57:25.460Z,4.50
2018-03-29T18:59:52.170Z,3.80
2018-03-29T19:02:19.382Z,4.07
2018-03-29T19:04:46.056Z,3.47
2018-03-29T19:07:12.814Z,3.80
2018-03-29T19:09:39.517Z,4.07
2018-03-29T19:12:06.234Z,3.40
2018-03-29T19:14:32.931Z,3.37
2018-03-29T19:16:59.667Z,3.80
2018-03-29T19:19:26.369Z,2.97
2018-03-29T19:21:53.162Z,3.00
2018-03-29T19:24:19.867Z,2.87
2018-03-29T19:26:46.573Z,2.70
2018-03-29T19:29:13.302Z,2.70
2018-03-29T19:31:40.034Z,3.30
2018-03-29T19:34:06.757Z,2.97
2018-03-29T19:36:33.488Z,3.30
2018-03-29T19:39:00.180Z,4.30
2018-03-29T19:41:26.869Z,3.87
2018-03-29T19:43:53.572Z,4.60
2018-03-29T19:46:20.272Z,3.80
2018-03-29T19:48:46.999Z,5.10
2018-03-29T19:51:13.701Z,5.03
2018-03-29T19:53:40.464Z,5.87
2018-03-29T19:56:07.168Z,5.90
2018-03-29T19:58:33.906Z,5.50
2018-03-29T20:01:00.545Z,5.20
2018-03-29T20:03:27.303Z,6.20
2018-03-29T20:05:54.035Z,5.50
2018-03-29T20:08:20.766Z,5.90
2018-03-29T20:10:47.593Z,6.23
2018-03-29T20:13:14.317Z,6.30
2018-03-29T20:15:41.027Z,7.20
2018-03-29T20:18:07.777Z,6.40
2018-03-29T20:20:34.554Z,6.60
2018-03-29T20:23:01.272Z,7.10
2018-03-29T20:25:27.996Z,5.40
2018-03-29T20:27:54.722Z,5.60
2018-03-29T20:30:21.414Z,6.00
2018-03-29T20:32:48.205Z,7.03
2018-03-29T20:35:14.931Z,8.00
2018-03-29T20:37:41.601Z,7.53
2018-03-29T20:40:08.308Z,5.73
2018-03-29T20:42:35.026Z,6.33
2018-03-29T20:45:01.762Z,5.53
2018-03-29T20:47:28.457Z,5.20
2018-03-29T20:49:55.177Z,5.40
2018-03-29T20:52:21.879Z,5.07
2018-03-29T20:54:48.939Z,4.37
2018-03-29T20:57:15.679Z,5.10
2018-03-29T20:59:42.405Z,4.73
2018-03-29T21:02:09.090Z,5.60
2018-03-29T21:04:35.825Z,5.83
2018-03-29T21:07:02.583Z,4.80
2018-03-29T21:09:29.343Z,5.30
2018-03-29T21:11:56.030Z,6.80
2018-03-29T21:14:22.769Z,6.60
2018-03-29T21:16:49.461Z,6.50
2018-03-29T21:19:16.165Z,4.90
2018-03-29T21:21:42.857Z,5.50
2018-03-29T21:24:09.562Z,6.30
2018-03-29T21:26:36.237Z,6.10
2018-03-29T21:29:02.962Z,4.90
2018-03-29T21:31:29.720Z,4.87
2018-03-29T21:33:56.422Z,5.00
2018-03-29T21:36:23.340Z,5.90
2018-03-29T21:38:50.263Z,5.30
2018-03-29T21:41:16.983Z,7.10
2018-03-29T21:43:43.654Z,6.57
2018-03-29T21:46:10.369Z,6.60
2018-03-29T21:48:37.063Z,6.00
2018-03-29T21:51:03.790Z,7.03
2018-03-29T21:53:30.492Z,6.23
2018-03-29T21:55:57.191Z,4.83
2018-03-29T21:58:23.924Z,6.53
2018-03-29T22:00:50.599Z,6.13
2018-03-29T22:03:17.313Z,4.90
2018-03-29T22:05:44.008Z,5.47
2018-03-29T22:08:10.794Z,5.20
2018-03-29T22:10:37.481Z,5.00
2018-03-29T22:13:04.156Z,5.20
2018-03-29T22:15:31.950Z,5.20
2018-03-29T22:17:59.067Z,4.50
2018-03-29T22:20:25.916Z,5.50
2018-03-29T22:22:52.612Z,5.03
2018-03-29T22:25:19.409Z,4.70
2018-03-29T22:27:46.093Z,4.70
2018-03-29T22:30:12.811Z,4.40
2018-03-29T22:32:39.487Z,4.33
2018-03-29T22:35:06.213Z,4.90
2018-03-29T22:37:32.907Z,4.43
2018-03-29T22:39:59.632Z,5.17
2018-03-29T22:42:26.337Z,4.37
2018-03-29T22:44:53.051Z,4.70
2018-03-29T22:47:19.753Z,4.60
2018-03-29T22:49:46.507Z,4.70
2018-03-29T22:52:13.187Z,4.00
2018-03-29T22:54:39.903Z,4.10
2018-03-29T22:57:06.745Z,4.03
2018-03-29T22:59:33.451Z,4.40
2018-03-29T23:02:00.138Z,5.17
2018-03-29T23:04:26.861Z,4.73
2018-03-29T23:06:53.636Z,4.87
2018-03-29T23:09:20.410Z,3.90
2018-03-29T23:11:48.064Z,4.80
2018-03-29T23:14:14.795Z,4.80
2018-03-29T23:16:41.932Z,4.10
2018-03-29T23:19:08.610Z,4.47
2018-03-29T23:21:36.570Z,5.20
2018-03-29T23:24:04.507Z,4.83
2018-03-29T23:26:31.190Z,3.87
2018-03-29T23:28:57.944Z,3.90
2018-03-29T23:31:24.655Z,4.63
2018-03-29T23:33:51.463Z,4.10
2018-03-29T23:36:18.170Z,4.43
2018-03-29T23:38:44.872Z,4.37
2018-03-29T23:41:11.575Z,4.40
2018-03-29T23:43:38.254Z,4.60
2018-03-29T23:46:04.982Z,4.20
2018-03-29T23:48:32.417Z,3.83
2018-03-29T23:50:59.083Z,3.83
2018-03-29T23:53:25.814Z,4.40
2018-03-29T23:55:52.523Z,4.53
2018-03-29T23:58:19.210Z,4.60
